createdAt,value
2023-04-26T00:00:30.306Z,101174.31
2023-04-26T00:02:59.922Z,101169.41
2023-04-26T00:05:26.995Z,101170.88
2023-04-26T00:07:54.224Z,101168.41
2023-04-26T00:10:21.108Z,101175.13
2023-04-26T00:12:47.735Z,101180.69
2023-04-26T00:15:14.141Z,101174.59
2023-04-26T00:17:41.377Z,101174.59
2023-04-26T00:20:10.440Z,101178.53
2023-04-26T00:22:37.438Z,101172.16
2023-04-26T00:25:04.179Z,101181.66
2023-04-26T00:27:30.549Z,101178.88
2023-04-26T00:29:56.997Z,101175.59
2023-04-26T00:32:23.361Z,101178.69
2023-04-26T00:34:49.714Z,101173.78
2023-04-26T00:37:16.588Z,101174.09
2023-04-26T00:39:42.998Z,101166.94
2023-04-26T00:42:09.387Z,101164.78
2023-04-26T00:44:36.285Z,101170.16
2023-04-26T00:47:03.398Z,101179.16
2023-04-26T00:49:30.049Z,101173.41
2023-04-26T00:51:57.602Z,101174.91
2023-04-26T00:54:25.765Z,101169.97
2023-04-26T00:56:53.367Z,101162.28
2023-04-26T00:59:21.316Z,101159.84
2023-04-26T01:01:49.075Z,101160.81
2023-04-26T01:04:15.979Z,101163.09
2023-04-26T01:06:42.653Z,101167.66
2023-04-26T01:09:10.828Z,101169.09
2023-04-26T01:11:38.448Z,101161.44
2023-04-26T01:14:06.310Z,101161.25
2023-04-26T01:16:33.160Z,101167.94
2023-04-26T01:19:07.657Z,101170.88
2023-04-26T01:21:34.473Z,101168.09
2023-04-26T01:24:01.416Z,101169.06
2023-04-26T01:26:27.795Z,101168.53
2023-04-26T01:28:54.314Z,101177.53
2023-04-26T01:31:21.461Z,101177.34
2023-04-26T01:33:47.819Z,101175.19
2023-04-26T01:36:14.138Z,101167.53
2023-04-26T01:38:40.502Z,101165.03
2023-04-26T01:41:07.187Z,101159.81
2023-04-26T01:43:33.584Z,101163.22
2023-04-26T01:45:59.940Z,101162.25
2023-04-26T01:48:26.350Z,101165.31
2023-04-26T01:50:52.696Z,101172.34
2023-04-26T01:53:19.299Z,101167.91
2023-04-26T01:55:45.710Z,101170.19
2023-04-26T01:58:12.295Z,101165.78
2023-04-26T02:00:38.648Z,101162.50
2023-04-26T02:03:05.038Z,101167.22
2023-04-26T02:05:31.648Z,101170.00
2023-04-26T02:07:58.232Z,101171.16
2023-04-26T02:10:24.909Z,101173.91
2023-04-26T02:12:51.308Z,101174.72
2023-04-26T02:15:17.954Z,101173.59
2023-04-26T02:17:44.532Z,101173.59
2023-04-26T02:20:11.537Z,101166.13
2023-04-26T02:22:38.189Z,101172.47
2023-04-26T02:25:05.490Z,101169.38
2023-04-26T02:27:32.904Z,101178.50
2023-04-26T02:29:59.978Z,101171.81
2023-04-26T02:32:26.392Z,101182.09
2023-04-26T02:34:52.811Z,101188.78
2023-04-26T02:37:19.422Z,101182.75
2023-04-26T02:39:50.876Z,101188.59
2023-04-26T02:42:17.477Z,101189.41
2023-04-26T02:44:43.845Z,101173.09
2023-04-26T02:47:11.145Z,101185.34
2023-04-26T02:49:37.555Z,101184.53
2023-04-26T02:52:04.137Z,101176.50
2023-04-26T02:54:30.689Z,101177.31
2023-04-26T02:56:58.354Z,101177.31
2023-04-26T02:59:24.935Z,101174.53
2023-04-26T03:01:51.349Z,101167.06
2023-04-26T03:04:18.219Z,101166.22
2023-04-26T03:06:44.937Z,101164.59
2023-04-26T03:09:11.470Z,101173.25
2023-04-26T03:11:37.776Z,101169.97
2023-04-26T03:14:04.270Z,101176.97
2023-04-26T03:16:30.696Z,101170.59
2023-04-26T03:18:57.033Z,101171.53
2023-04-26T03:21:23.651Z,101164.19
2023-04-26T03:23:50.003Z,101170.66
2023-04-26T03:26:16.643Z,101155.81
2023-04-26T03:28:43.008Z,101165.25
2023-04-26T03:31:09.383Z,101159.50
2023-04-26T03:33:36.019Z,101163.44
2023-04-26T03:36:02.778Z,101162.94
2023-04-26T03:38:29.334Z,101161.28
2023-04-26T03:40:55.940Z,101163.56
2023-04-26T03:43:22.297Z,101165.50
2023-04-26T03:45:50.231Z,101165.84
2023-04-26T03:48:17.215Z,101164.69
2023-04-26T03:50:44.966Z,101162.22
2023-04-26T03:53:12.042Z,101161.94
2023-04-26T03:55:38.540Z,101172.19
2023-04-26T03:58:07.782Z,101158.34
2023-04-26T04:00:37.529Z,101165.00
2023-04-26T04:03:04.576Z,101160.91
2023-04-26T04:05:31.017Z,101166.78
2023-04-26T04:07:57.536Z,101167.06
2023-04-26T04:10:23.990Z,101164.59
2023-04-26T04:12:54.053Z,101156.28
2023-04-26T04:15:21.310Z,101160.50
2023-04-26T04:17:47.911Z,101164.41
2023-04-26T04:20:14.356Z,101156.41
2023-04-26T04:22:40.860Z,101152.50
2023-04-26T04:25:09.121Z,101157.56
2023-04-26T04:27:36.852Z,101161.94
2023-04-26T04:30:07.182Z,101156.41
2023-04-26T04:32:33.870Z,101161.94
2023-04-26T04:35:00.611Z,101155.59
2023-04-26T04:37:27.566Z,101160.00
2023-04-26T04:39:56.647Z,101168.31
2023-04-26T04:42:23.580Z,101164.19
2023-04-26T04:44:51.335Z,101168.13
2023-04-26T04:47:17.994Z,101170.06
2023-04-26T04:49:44.918Z,101180.66
2023-04-26T04:52:11.476Z,101186.50
2023-04-26T04:54:37.876Z,101190.41
2023-04-26T04:57:04.277Z,101195.13
2023-04-26T04:59:31.491Z,101184.03
2023-04-26T05:01:58.461Z,101180.94
2023-04-26T05:04:25.378Z,101182.28
2023-04-26T05:06:52.359Z,101180.81
2023-04-26T05:09:18.950Z,101187.72
2023-04-26T05:11:46.005Z,101187.38
2023-04-26T05:14:12.654Z,101186.75
2023-04-26T05:16:39.373Z,101185.03
2023-04-26T05:19:08.038Z,101182.97
2023-04-26T05:21:35.912Z,101183.66
2023-04-26T05:24:02.255Z,101189.88
2023-04-26T05:26:28.928Z,101188.63
2023-04-26T05:28:55.439Z,101190.13
2023-04-26T05:31:21.890Z,101199.47
2023-04-26T05:33:48.503Z,101203.25
2023-04-26T05:36:14.947Z,101204.22
2023-04-26T05:38:41.457Z,101203.94
2023-04-26T05:41:07.793Z,101213.25
2023-04-26T05:43:34.604Z,101203.47
2023-04-26T05:46:02.247Z,101209.50
2023-04-26T05:48:30.024Z,101209.69
2023-04-26T05:50:56.469Z,101216.59
2023-04-26T05:53:22.893Z,101215.13
2023-04-26T05:55:49.321Z,101221.19
2023-04-26T05:58:15.813Z,101224.13
2023-04-26T06:00:43.789Z,101221.03
2023-04-26T06:03:10.941Z,101220.72
2023-04-26T06:05:41.233Z,101228.91
2023-04-26T06:08:08.017Z,101227.94
2023-04-26T06:10:35.888Z,101231.72
2023-04-26T06:13:02.501Z,101229.63
2023-04-26T06:15:28.937Z,101228.06
2023-04-26T06:17:55.353Z,101233.13
2023-04-26T06:20:22.104Z,101235.44
2023-04-26T06:22:48.782Z,101237.44
2023-04-26T06:25:15.437Z,101240.56
2023-04-26T06:27:42.058Z,101240.91
2023-04-26T06:30:09.036Z,101242.72
2023-04-26T06:32:36.324Z,101237.84
2023-04-26T06:35:03.049Z,101243.25
2023-04-26T06:37:29.412Z,101239.16
2023-04-26T06:39:55.821Z,101243.97
2023-04-26T06:42:22.378Z,101241.53
2023-04-26T06:44:48.782Z,101239.59
2023-04-26T06:47:15.167Z,101242.34
2023-04-26T06:49:42.400Z,101243.53
2023-04-26T06:52:09.670Z,101242.72
2023-04-26T06:54:40.247Z,101234.34
2023-04-26T06:57:16.668Z,101242.69
2023-04-26T06:59:43.013Z,101248.25
2023-04-26T07:02:11.011Z,101244.97
2023-04-26T07:04:37.709Z,101248.91
2023-04-26T07:07:04.540Z,101252.34
2023-04-26T07:09:31.942Z,101257.06
2023-04-26T07:11:58.291Z,101250.19
2023-04-26T07:14:24.872Z,101250.81
2023-04-26T07:16:51.361Z,101253.94
2023-04-26T07:19:18.021Z,101246.22
2023-04-26T07:21:44.513Z,101240.13
2023-04-26T07:24:11.115Z,101250.78
2023-04-26T07:26:37.970Z,101244.25
2023-04-26T07:29:04.428Z,101238.16
2023-04-26T07:31:32.044Z,101244.00
2023-04-26T07:34:00.427Z,101240.03
2023-04-26T07:36:27.769Z,101249.66
2023-04-26T07:38:54.566Z,101244.53
2023-04-26T07:41:21.450Z,101253.81
2023-04-26T07:43:47.845Z,101239.94
2023-04-26T07:46:14.537Z,101244.75
2023-04-26T07:48:40.928Z,101243.22
2023-04-26T07:51:12.235Z,101242.81
2023-04-26T07:53:39.712Z,101249.97
2023-04-26T07:56:10.507Z,101250.09
2023-04-26T07:58:38.945Z,101245.00
2023-04-26T08:01:05.863Z,101243.38
2023-04-26T08:03:32.765Z,101245.81
2023-04-26T08:05:59.836Z,101237.13
2023-04-26T08:08:26.984Z,101237.25
2023-04-26T08:10:53.606Z,101235.78
2023-04-26T08:13:20.228Z,101247.06
2023-04-26T08:15:47.196Z,101246.38
2023-04-26T08:18:13.633Z,101245.69
2023-04-26T08:20:40.117Z,101236.97
2023-04-26T08:23:10.019Z,101240.72
2023-04-26T08:25:36.428Z,101240.50
2023-04-26T08:28:02.942Z,101243.06
2023-04-26T08:30:29.517Z,101241.69
2023-04-26T08:32:56.625Z,101238.56
2023-04-26T08:35:23.325Z,101232.63
2023-04-26T08:37:49.957Z,101226.25
2023-04-26T08:40:22.882Z,101230.19
2023-04-26T08:42:49.283Z,101222.75
2023-04-26T08:45:16.587Z,101229.63
2023-04-26T08:48:06.366Z,101224.72
2023-04-26T08:50:34.684Z,101233.22
2023-04-26T08:53:02.468Z,101231.97
2023-04-26T08:55:29.659Z,101229.16
2023-04-26T08:57:56.604Z,101222.75
2023-04-26T09:00:23.532Z,101233.91
2023-04-26T09:02:52.809Z,101228.31
2023-04-26T09:05:24.939Z,101236.38
2023-04-26T09:07:56.266Z,101236.03
2023-04-26T09:10:23.316Z,101234.19
2023-04-26T09:12:53.351Z,101234.31
2023-04-26T09:15:23.001Z,101235.25
2023-04-26T09:17:52.758Z,101242.94
2023-04-26T09:20:29.102Z,101242.47
2023-04-26T09:23:06.777Z,101238.50
2023-04-26T09:25:33.503Z,101237.94
2023-04-26T09:28:01.084Z,101239.59
2023-04-26T09:30:28.584Z,101234.09
2023-04-26T09:32:55.124Z,101229.94
2023-04-26T09:35:22.907Z,101240.41
2023-04-26T09:38:02.961Z,101239.22
2023-04-26T09:40:36.984Z,101239.38
2023-04-26T09:43:06.135Z,101232.97
2023-04-26T09:45:34.355Z,101230.53
2023-04-26T09:48:21.891Z,101233.66
2023-04-26T09:50:50.555Z,101233.78
2023-04-26T09:53:31.279Z,101233.09
2023-04-26T09:56:10.084Z,101245.22
2023-04-26T09:58:40.639Z,101233.44
2023-04-26T10:01:08.722Z,101227.97
2023-04-26T10:03:36.029Z,101229.72
2023-04-26T10:06:04.282Z,101231.47
2023-04-26T10:08:34.679Z,101234.03
2023-04-26T10:11:04.094Z,101229.50
2023-04-26T10:13:34.846Z,101240.44
2023-04-26T10:16:08.181Z,101231.38
2023-04-26T10:18:34.607Z,101227.88
2023-04-26T10:21:17.301Z,101233.47
2023-04-26T10:23:44.769Z,101221.94
2023-04-26T10:26:53.260Z,101223.81
2023-04-26T10:30:07.419Z,101216.09
2023-04-26T10:32:56.537Z,101218.44
2023-04-26T10:35:30.985Z,101212.03
2023-04-26T10:38:18.405Z,101211.91
2023-04-26T10:40:45.768Z,101214.03
2023-04-26T10:43:15.122Z,101203.66
2023-04-26T10:45:43.219Z,101203.78
2023-04-26T10:48:18.925Z,101197.81
2023-04-26T10:51:10.424Z,101202.38
2023-04-26T10:53:46.119Z,101201.31
2023-04-26T10:56:33.528Z,101199.31
2023-04-26T10:59:33.367Z,101201.75
2023-04-26T11:02:01.279Z,101205.50
2023-04-26T11:04:50.906Z,101210.63
2023-04-26T11:07:37.285Z,101209.47
2023-04-26T11:10:04.041Z,101209.56
2023-04-26T11:12:30.503Z,101197.91
2023-04-26T11:14:59.913Z,101200.72
2023-04-26T11:17:26.566Z,101207.59
2023-04-26T11:19:53.203Z,101205.59
2023-04-26T11:22:22.147Z,101210.38
2023-04-26T11:24:49.793Z,101207.59
2023-04-26T11:27:16.708Z,101204.78
2023-04-26T11:29:44.449Z,101198.38
2023-04-26T11:32:13.059Z,101199.66
2023-04-26T11:34:44.434Z,101202.94
2023-04-26T11:37:11.691Z,101199.88
2023-04-26T11:39:38.106Z,101202.31
2023-04-26T11:42:09.043Z,101199.97
2023-04-26T11:44:37.757Z,101197.97
2023-04-26T11:47:06.645Z,101201.25
2023-04-26T11:49:35.560Z,101204.50
2023-04-26T11:52:04.944Z,101208.59
2023-04-26T11:54:33.081Z,101207.41
2023-04-26T11:57:01.050Z,101206.72
2023-04-26T11:59:29.181Z,101196.78
2023-04-26T12:01:57.284Z,101196.44
2023-04-26T12:04:30.378Z,101206.47
2023-04-26T12:06:58.516Z,101208.53
2023-04-26T12:09:28.379Z,101200.63
2023-04-26T12:12:08.175Z,101199.91
2023-04-26T12:14:36.575Z,101193.72
2023-04-26T12:17:04.350Z,101195.44
2023-04-26T12:19:34.602Z,101194.72
2023-04-26T12:22:01.134Z,101200.88
2023-04-26T12:24:30.669Z,101194.13
2023-04-26T12:26:57.132Z,101200.16
2023-04-26T12:29:23.508Z,101199.78
2023-04-26T12:31:50.114Z,101201.78
2023-04-26T12:34:16.730Z,101202.97
2023-04-26T12:36:46.400Z,101202.50
2023-04-26T12:39:14.348Z,101206.50
2023-04-26T12:41:44.243Z,101202.50
2023-04-26T12:44:11.947Z,101209.72
2023-04-26T12:46:38.658Z,101206.56
2023-04-26T12:49:05.322Z,101207.38
2023-04-26T12:51:34.579Z,101209.03
2023-04-26T12:54:01.236Z,101212.63
2023-04-26T12:56:29.530Z,101211.00
2023-04-26T12:58:56.124Z,101211.00
2023-04-26T13:01:22.585Z,101218.13
2023-04-26T13:03:49.156Z,101212.91
2023-04-26T13:06:16.053Z,101197.25
2023-04-26T13:08:42.457Z,101196.81
2023-04-26T13:11:08.879Z,101196.00
2023-04-26T13:13:42.943Z,101198.78
2023-04-26T13:16:09.978Z,101203.22
2023-04-26T13:18:36.371Z,101195.63
2023-04-26T13:21:04.191Z,101195.28
2023-04-26T13:23:30.829Z,101192.13
2023-04-26T13:25:57.123Z,101190.59
2023-04-26T13:28:23.466Z,101199.09
2023-04-26T13:33:16.485Z,101187.25
2023-04-26T13:35:42.895Z,101179.00
2023-04-26T13:38:09.314Z,101187.50
2023-04-26T13:40:37.534Z,101189.94
2023-04-26T13:43:03.952Z,101194.47
2023-04-26T13:45:30.657Z,101194.13
2023-04-26T13:47:57.032Z,101195.38
2023-04-26T13:50:23.457Z,101193.03
2023-04-26T13:52:50.911Z,101190.22
2023-04-26T13:55:17.426Z,101195.47
2023-04-26T13:57:43.741Z,101189.06
2023-04-26T14:00:11.864Z,101188.34
2023-04-26T14:02:38.769Z,101188.00
2023-04-26T14:05:05.672Z,101187.25
2023-04-26T14:07:32.134Z,101198.56
2023-04-26T14:09:58.518Z,101195.88
2023-04-26T14:12:25.231Z,101188.72
2023-04-26T14:14:51.691Z,101179.97
2023-04-26T14:17:18.095Z,101174.81
2023-04-26T14:19:44.451Z,101172.44
2023-04-26T14:22:12.745Z,101176.53
2023-04-26T14:24:39.252Z,101187.81
2023-04-26T14:27:05.839Z,101179.06
2023-04-26T14:29:32.296Z,101176.69
2023-04-26T14:31:58.773Z,101179.16
2023-04-26T14:34:26.448Z,101174.72
2023-04-26T14:36:53.035Z,101177.16
2023-04-26T14:39:19.626Z,101165.13
2023-04-26T14:41:46.520Z,101169.19
2023-04-26T14:44:12.967Z,101168.84
2023-04-26T14:46:39.655Z,101174.88
2023-04-26T14:49:06.033Z,101178.13
2023-04-26T14:51:32.654Z,101175.78
2023-04-26T14:53:59.664Z,101176.22
2023-04-26T14:56:26.243Z,101177.88
2023-04-26T14:58:52.830Z,101182.31
2023-04-26T15:01:19.166Z,101173.44
2023-04-26T15:03:46.560Z,101174.63
2023-04-26T15:06:13.009Z,101171.00
2023-04-26T15:08:39.431Z,101167.38
2023-04-26T15:11:06.110Z,101168.56
2023-04-26T15:13:32.683Z,101167.75
2023-04-26T15:16:06.004Z,101172.91
2023-04-26T15:18:35.882Z,101168.09
2023-04-26T15:21:02.246Z,101171.72
2023-04-26T15:23:28.579Z,101166.47
2023-04-26T15:25:54.932Z,101165.66
2023-04-26T15:28:21.665Z,101169.66
2023-04-26T15:30:49.312Z,101175.25
2023-04-26T15:33:17.040Z,101173.66
2023-04-26T15:35:45.934Z,101170.84
2023-04-26T15:38:12.297Z,101170.84
2023-04-26T15:40:38.725Z,101170.84
2023-04-26T15:43:05.108Z,101168.03
2023-04-26T15:45:31.460Z,101163.59
2023-04-26T15:47:59.108Z,101158.78
2023-04-26T15:50:25.630Z,101161.25
2023-04-26T15:52:52.092Z,101165.56
2023-04-26T15:55:18.682Z,101155.56
2023-04-26T15:57:45.289Z,101157.91
2023-04-26T16:00:14.126Z,101163.03
2023-04-26T16:02:42.683Z,101164.66
2023-04-26T16:05:09.522Z,101158.72
2023-04-26T16:07:38.168Z,101161.97
2023-04-26T16:10:08.966Z,101164.41
2023-04-26T16:12:39.618Z,101161.25
2023-04-26T16:15:09.632Z,101161.59
2023-04-26T16:17:37.135Z,101157.25
2023-04-26T16:20:07.024Z,101166.84
2023-04-26T16:22:35.055Z,101163.59
2023-04-26T16:25:03.824Z,101163.16
2023-04-26T16:27:30.313Z,101164.22
2023-04-26T16:29:59.203Z,101166.13
2023-04-26T16:32:26.278Z,101163.16
2023-04-26T16:34:53.149Z,101161.44
2023-04-26T16:37:19.885Z,101164.13
2023-04-26T16:39:46.510Z,101161.59
2023-04-26T16:42:13.116Z,101155.53
2023-04-26T16:44:40.943Z,101161.06
2023-04-26T16:47:07.520Z,101160.25
2023-04-26T16:49:34.581Z,101167.00
2023-04-26T16:52:01.107Z,101168.19
2023-04-26T16:54:27.666Z,101167.75
2023-04-26T16:56:54.367Z,101167.28
2023-04-26T16:59:21.092Z,101173.25
2023-04-26T17:01:47.828Z,101175.59
2023-04-26T17:04:14.783Z,101175.94
2023-04-26T17:06:41.570Z,101177.13
2023-04-26T17:09:09.138Z,101173.88
2023-04-26T17:11:37.452Z,101181.47
2023-04-26T17:14:04.698Z,101177.81
2023-04-26T17:16:31.839Z,101183.75
2023-04-26T17:18:58.725Z,101188.91
2023-04-26T17:21:25.501Z,101181.31
2023-04-26T17:23:52.234Z,101175.25
2023-04-26T17:26:18.981Z,101178.41
2023-04-26T17:28:45.377Z,101182.41
2023-04-26T17:31:12.181Z,101183.56
2023-04-26T17:33:38.671Z,101178.78
2023-04-26T17:36:05.609Z,101181.13
2023-04-26T17:38:32.038Z,101178.31
2023-04-26T17:40:59.758Z,101175.06
2023-04-26T17:43:26.191Z,101180.66
2023-04-26T17:45:52.768Z,101177.88
2023-04-26T17:48:19.236Z,101175.44
2023-04-26T17:50:45.973Z,101169.00
2023-04-26T17:53:12.338Z,101173.78
2023-04-26T17:55:43.406Z,101172.53
2023-04-26T17:58:10.438Z,101176.50
2023-04-26T18:00:38.134Z,101175.22
2023-04-26T18:03:06.709Z,101180.00
2023-04-26T18:05:33.579Z,101185.16
2023-04-26T18:08:11.308Z,101184.69
2023-04-26T18:10:38.766Z,101187.50
2023-04-26T18:13:06.968Z,101187.03
2023-04-26T18:15:35.818Z,101187.84
2023-04-26T18:18:05.510Z,101196.63
2023-04-26T18:20:32.524Z,101192.16
2023-04-26T18:22:59.087Z,101186.94
2023-04-26T18:25:27.322Z,101188.44
2023-04-26T18:27:57.078Z,101194.03
2023-04-26T18:30:23.702Z,101203.97
2023-04-26T18:32:52.186Z,101207.13
2023-04-26T18:35:19.050Z,101206.34
2023-04-26T18:37:45.712Z,101205.16
2023-04-26T18:40:13.242Z,101205.41
2023-04-26T18:42:40.020Z,101206.09
2023-04-26T18:45:15.136Z,101206.00
2023-04-26T18:47:41.762Z,101208.34
2023-04-26T18:50:08.639Z,101207.53
2023-04-26T18:52:38.893Z,101213.00
2023-04-26T18:55:10.053Z,101209.41
2023-04-26T18:57:36.945Z,101209.28
2023-04-26T19:00:05.305Z,101211.28
2023-04-26T19:02:36.210Z,101211.63
2023-04-26T19:05:04.669Z,101212.34
2023-04-26T19:07:31.880Z,101216.31
2023-04-26T19:10:00.674Z,101217.81
2023-04-26T19:12:29.260Z,101226.56
2023-04-26T19:14:58.189Z,101221.66
2023-04-26T19:17:24.981Z,101224.00
2023-04-26T19:19:57.868Z,101230.78
2023-04-26T19:22:26.924Z,101231.13
2023-04-26T19:24:53.557Z,101235.81
2023-04-26T19:27:24.860Z,101238.13
2023-04-26T19:29:51.207Z,101243.25
2023-04-26T19:32:23.149Z,101239.88
2023-04-26T19:34:50.219Z,101237.91
2023-04-26T19:37:20.423Z,101237.31
2023-04-26T19:39:46.913Z,101248.50
2023-04-26T19:42:16.155Z,101243.59
2023-04-26T19:44:46.898Z,101245.09
2023-04-26T19:47:16.028Z,101240.34
2023-04-26T19:49:42.409Z,101239.88
2023-04-26T19:52:08.866Z,101245.81
2023-04-26T19:54:41.925Z,101241.75
2023-04-26T19:57:10.461Z,101244.53
2023-04-26T19:59:36.858Z,101242.56
2023-04-26T20:02:03.774Z,101244.22
2023-04-26T20:04:31.588Z,101253.28
2023-04-26T20:07:03.371Z,101242.75
2023-04-26T20:09:30.276Z,101262.22
2023-04-26T20:12:02.485Z,101259.31
2023-04-26T20:14:30.899Z,101259.19
2023-04-26T20:17:02.017Z,101258.59
2023-04-26T20:19:29.396Z,101264.88
2023-04-26T20:21:59.513Z,101258.69
2023-04-26T20:24:31.911Z,101258.09
2023-04-26T20:27:01.130Z,101262.41
2023-04-26T20:29:35.254Z,101266.25
2023-04-26T20:32:01.679Z,101265.78
2023-04-26T20:34:28.179Z,101264.94
2023-04-26T20:36:55.229Z,101271.56
2023-04-26T20:39:21.869Z,101264.38
2023-04-26T20:41:48.664Z,101263.88
2023-04-26T20:44:27.128Z,101272.47
2023-04-26T20:46:53.636Z,101266.22
2023-04-26T20:49:21.044Z,101269.13
2023-04-26T20:51:47.439Z,101271.81
2023-04-26T20:54:13.888Z,101281.66
2023-04-26T20:56:42.937Z,101280.41
2023-04-26T20:59:10.887Z,101279.44
2023-04-26T21:01:37.328Z,101283.41
2023-04-26T21:04:03.885Z,101284.91
2023-04-26T21:06:31.093Z,101282.47
2023-04-26T21:08:58.004Z,101284.78
2023-04-26T21:11:24.641Z,101281.38
2023-04-26T21:13:55.724Z,101282.88
2023-04-26T21:16:22.189Z,101285.31
2023-04-26T21:18:48.760Z,101284.50
2023-04-26T21:21:15.430Z,101291.25
2023-04-26T21:23:43.240Z,101289.97
2023-04-26T21:26:09.688Z,101281.94
2023-04-26T21:28:36.422Z,101278.34
2023-04-26T21:31:09.322Z,101275.09
2023-04-26T21:33:36.383Z,101276.72
2023-04-26T21:36:07.689Z,101282.28
2023-04-26T21:38:35.055Z,101281.94
2023-04-26T21:41:01.401Z,101283.91
2023-04-26T21:43:28.248Z,101284.72
2023-04-26T21:46:00.748Z,101289.84
2023-04-26T21:48:27.166Z,101285.09
2023-04-26T21:50:53.624Z,101277.88
2023-04-26T21:53:20.769Z,101279.00
2023-04-26T21:55:52.726Z,101283.31
2023-04-26T21:58:21.640Z,101278.09
2023-04-26T22:00:49.745Z,101279.22
2023-04-26T22:03:17.218Z,101287.13
2023-04-26T22:05:44.544Z,101286.31
2023-04-26T22:08:11.334Z,101287.47
2023-04-26T22:10:39.040Z,101289.78
2023-04-26T22:13:05.692Z,101285.72
2023-04-26T22:15:33.199Z,101292.44
2023-04-26T22:18:00.083Z,101298.38
2023-04-26T22:20:26.796Z,101297.09
2023-04-26T22:22:53.593Z,101302.53
2023-04-26T22:25:20.596Z,101304.81
2023-04-26T22:27:49.416Z,101299.59
2023-04-26T22:30:25.284Z,101298.97
2023-04-26T22:32:55.460Z,101301.78
2023-04-26T22:35:23.463Z,101304.75
2023-04-26T22:37:53.248Z,101310.66
2023-04-26T22:40:23.978Z,101309.81
2023-04-26T22:42:55.748Z,101313.31
2023-04-26T22:45:22.613Z,101313.97
2023-04-26T22:47:54.623Z,101314.69
2023-04-26T22:50:21.782Z,101311.38
2023-04-26T22:52:49.594Z,101316.50
2023-04-26T22:55:19.108Z,101310.78
2023-04-26T22:57:46.384Z,101311.59
2023-04-26T23:00:15.022Z,101300.28
2023-04-26T23:02:46.818Z,101312.13
2023-04-26T23:05:13.751Z,101312.81
2023-04-26T23:07:40.406Z,101308.56
2023-04-26T23:10:10.123Z,101317.94
2023-04-26T23:15:17.840Z,101313.56
2023-04-26T23:17:47.380Z,101319.00
2023-04-26T23:20:14.079Z,101321.50
2023-04-26T23:22:45.958Z,101320.03
2023-04-26T23:25:12.316Z,101316.97
2023-04-26T23:27:41.320Z,101322.72
2023-04-26T23:30:09.606Z,101323.56
2023-04-26T23:32:36.438Z,101319.69
2023-04-26T23:35:04.037Z,101311.81
2023-04-26T23:37:36.043Z,101325.44
2023-04-26T23:40:06.482Z,101321.69
2023-04-26T23:42:32.876Z,101328.59
2023-04-26T23:45:00.339Z,101325.94
2023-04-26T23:47:30.858Z,101322.03
2023-04-26T23:50:00.031Z,101318.59
2023-04-26T23:52:26.645Z,101327.13
2023-04-26T23:54:53.498Z,101328.41
2023-04-26T23:57:19.874Z,101326.66
2023-04-26T23:59:46.320Z,101329.56
